KFCS

Butts AAF (Fort Carson) Airport

Fort Carson, Colorado, USA
METAR KFCS 231058Z AUTO 36013KT 10SM CLR 11/06 A3003 RMK AO2 SLP123 T01140061 $
Observed Flight Rules
May-23 @ 10:58 UTC (18 minutes ago) Visual Flight Rules
Wind Visibility Clouds
360° at 13 knots 10 miles
  • Clear skies
Temperatures Readings
Current 11°C / 52°F
Dewpoint 6°C / 43°F
Humidity 72%
Altimeter 30.03" Hg
Pressure 1012.3 hPa
Elevation 1789
METAR KFCS 231058Z AUTO 36013KT 10SM CLR 11/06 A3003 RMK AO2 SLP123 T01140061 $
Observed Flight Rules
May-23 @ 10:58 UTC
(18 minutes ago)
VFR
Wind Visibility
360° at 13 knots 10 miles
Clouds
  • Clear skies
Temperature Dewpoint
11°C / 52°F 6°C / 43°F
Humidity Altimeter Pressure
72% 30.03" Hg 1012.3 hPa